Terminal Aerodrome Forecast
Issued by NWS Lake Charles, LA

Home | Current Version | Previous Version | Text Only | Print | Product List | Glossary On
Versions: 1 2 3 4 5 6 7 8 9 10 11 12 13 14 15 16 17 18 19 20 21 22
000
FTUS44 KLCH 202300
TAFARA
TAF
KARA 202320Z 2100/2124 04012KT P6SM OVC008
      TEMPO 2102/2106 SCT008 OVC015
     FM210600 06008KT P6SM SCT015 BKN025
     FM211500 08008KT P6SM OVC025=

USA.gov is the U.S. government's official web portal to all federal, state and local government web resources and services.